TimeMDT,TemperatureF,Dew PointF,Humidity,Sea Level PressureIn,VisibilityMPH,Wind Direction,Wind SpeedMPH,Gust SpeedMPH,PrecipitationIn,Events,Conditions,WindDirDegrees,DateUTC
12:53 AM,63.0,57.9,84,30.01,10.0,North,5.8,-,N/A,,Clear,360,2013-08-22 06:53:00
1:53 AM,61.0,57.0,87,30.03,10.0,NW,8.1,-,N/A,,Clear,320,2013-08-22 07:53:00
2:53 AM,57.9,55.0,90,30.02,10.0,Calm,Calm,-,N/A,,Clear,0,2013-08-22 08:53:00
3:53 AM,57.9,55.9,93,30.02,10.0,Calm,Calm,-,N/A,,Clear,0,2013-08-22 09:53:00
4:53 AM,59.0,55.9,90,30.03,10.0,North,4.6,-,N/A,,Clear,10,2013-08-22 10:53:00
5:53 AM,59.0,55.9,90,30.06,10.0,North,8.1,-,N/A,,Partly Cloudy,360,2013-08-22 11:53:00
6:21 AM,59.0,57.2,94,30.18,10.0,North,4.6,-,N/A,,Mostly Cloudy,10,2013-08-22 12:21:00
6:33 AM,59.0,57.2,94,30.19,2.5,North,5.8,-,N/A,,Mostly Cloudy,10,2013-08-22 12:33:00
6:36 AM,59.0,57.2,94,30.19,1.0,North,5.8,-,N/A,,Mostly Cloudy,10,2013-08-22 12:36:00
6:47 AM,59.0,57.2,94,30.19,1.5,North,4.6,-,N/A,,Overcast,10,2013-08-22 12:47:00
6:51 AM,59.0,57.2,94,30.19,1.0,North,5.8,-,N/A,,Overcast,360,2013-08-22 12:51:00
6:53 AM,59.0,57.9,96,30.09,1.0,North,5.8,-,N/A,,Overcast,10,2013-08-22 12:53:00
6:59 AM,60.8,57.2,88,30.19,1.5,NNE,9.2,-,N/A,,Overcast,20,2013-08-22 12:59:00
7:03 AM,60.8,59.0,94,30.20,1.0,NNE,10.4,-,N/A,,Overcast,20,2013-08-22 13:03:00
7:11 AM,60.8,59.0,94,30.21,0.8,North,5.8,-,N/A,,Overcast,360,2013-08-22 13:11:00
7:18 AM,60.8,59.0,94,30.22,1.2,North,8.1,-,N/A,,Overcast,350,2013-08-22 13:18:00
7:27 AM,60.8,59.0,94,30.21,2.0,NNE,6.9,-,N/A,,Overcast,20,2013-08-22 13:27:00
7:39 AM,60.8,59.0,94,30.21,1.2,North,6.9,-,N/A,,Overcast,360,2013-08-22 13:39:00
7:53 AM,62.1,59.0,90,30.11,1.8,North,6.9,-,N/A,,Overcast,10,2013-08-22 13:53:00
7:57 AM,62.6,59.0,88,30.20,3.0,NNE,6.9,-,N/A,,Overcast,20,2013-08-22 13:57:00
8:19 AM,64.4,60.8,88,30.20,10.0,North,8.1,-,N/A,,Scattered Clouds,10,2013-08-22 14:19:00
8:53 AM,68.0,60.1,76,30.10,10.0,NNE,8.1,-,N/A,,Clear,30,2013-08-22 14:53:00
9:53 AM,70.0,61.0,73,30.10,10.0,Variable,4.6,-,N/A,,Clear,0,2013-08-22 15:53:00
10:53 AM,75.9,60.1,58,30.09,10.0,NNE,10.4,-,N/A,,Clear,20,2013-08-22 16:53:00
11:53 AM,81.0,57.0,44,30.08,10.0,NE,8.1,-,N/A,,Clear,40,2013-08-22 17:53:00
12:53 PM,81.0,57.9,45,30.06,10.0,ENE,11.5,-,N/A,,Clear,60,2013-08-22 18:53:00
1:53 PM,84.0,53.1,34,30.04,10.0,ESE,9.2,18.4,N/A,,Clear,110,2013-08-22 19:53:00
2:53 PM,86.0,53.1,32,30.03,10.0,East,10.4,18.4,N/A,,Clear,100,2013-08-22 20:53:00
3:53 PM,84.0,55.0,37,30.01,10.0,East,13.8,21.9,N/A,,Clear,80,2013-08-22 21:53:00
4:53 PM,81.0,57.0,44,30.01,10.0,East,13.8,20.7,N/A,,Clear,90,2013-08-22 22:53:00
5:53 PM,77.0,61.0,58,30.02,10.0,East,15.0,-,N/A,,Clear,90,2013-08-22 23:53:00
6:53 PM,73.0,61.0,66,30.03,10.0,East,11.5,-,N/A,,Clear,100,2013-08-23 00:53:00
7:53 PM,69.1,60.1,73,30.04,10.0,ESE,12.7,-,N/A,,Clear,110,2013-08-23 01:53:00
8:53 PM,68.0,60.1,76,30.03,10.0,East,10.4,-,N/A,,Clear,100,2013-08-23 02:53:00
9:53 PM,66.9,61.0,81,30.04,10.0,ESE,11.5,-,N/A,,Clear,120,2013-08-23 03:53:00
10:53 PM,66.0,62.1,87,30.05,10.0,SSE,5.8,-,N/A,,Clear,160,2013-08-23 04:53:00
11:53 PM,63.0,61.0,93,30.04,10.0,SE,4.6,-,N/A,,Clear,130,2013-08-23 05:53:00